createdAt,value
2023-03-11T00:01:29.438Z,83.26
2023-03-11T00:06:36.128Z,83.45
2023-03-11T00:11:39.236Z,84.04
2023-03-11T00:16:42.405Z,83.60
2023-03-11T00:21:46.988Z,84.07
2023-03-11T00:26:50.163Z,83.82
2023-03-11T00:31:53.380Z,84.49
2023-03-11T00:36:57.944Z,83.97
2023-03-11T00:42:01.320Z,84.81
2023-03-11T00:47:04.540Z,84.56
2023-03-11T00:52:09.164Z,85.17
2023-03-11T00:57:12.328Z,84.80
2023-03-11T01:02:15.477Z,84.99
2023-03-11T01:07:20.028Z,85.81
2023-03-11T01:12:23.189Z,85.74
2023-03-11T01:17:26.351Z,85.49
2023-03-11T01:22:30.960Z,85.63
2023-03-11T01:27:34.103Z,86.12
2023-03-11T01:32:37.346Z,85.59
2023-03-11T01:37:42.165Z,85.67
2023-03-11T01:42:45.069Z,85.89
2023-03-11T01:47:48.185Z,85.24
2023-03-11T01:52:52.796Z,85.56
2023-03-11T01:57:56.633Z,85.25
2023-03-11T02:03:03.348Z,85.82
2023-03-11T02:08:09.147Z,85.80
2023-03-11T02:13:13.016Z,85.15
2023-03-11T02:18:18.695Z,85.19
2023-03-11T02:23:28.929Z,85.41
2023-03-11T02:28:36.130Z,85.02
2023-03-11T02:33:39.639Z,84.96
2023-03-11T02:38:42.776Z,85.20
2023-03-11T02:43:48.206Z,84.96
2023-03-11T02:48:52.541Z,84.82
2023-03-11T02:54:01.078Z,85.26
2023-03-11T02:59:05.664Z,85.38
2023-03-11T03:04:08.913Z,85.16
2023-03-11T03:09:12.236Z,84.79
2023-03-11T03:14:16.834Z,85.13
2023-03-11T03:19:20.081Z,84.84
2023-03-11T03:24:23.220Z,84.61
2023-03-11T03:29:27.854Z,84.43
2023-03-11T03:34:30.996Z,84.43
2023-03-11T03:39:34.312Z,84.66
2023-03-11T03:44:38.857Z,84.31
2023-03-11T03:49:42.049Z,84.84
2023-03-11T03:54:45.289Z,84.55
2023-03-11T03:59:49.833Z,84.17
2023-03-11T04:04:53.079Z,84.60
2023-03-11T04:09:56.191Z,84.51
2023-03-11T04:15:00.796Z,83.92
2023-03-11T04:20:04.479Z,84.04
2023-03-11T04:25:08.766Z,84.12
2023-03-11T04:30:14.574Z,84.39
2023-03-11T04:35:17.806Z,84.34
2023-03-11T04:40:21.280Z,84.51
2023-03-11T04:45:25.813Z,84.49
2023-03-11T04:50:28.987Z,83.88
2023-03-11T04:55:33.541Z,84.07
2023-03-11T05:00:38.255Z,84.42
2023-03-11T05:05:41.481Z,84.41
2023-03-11T05:10:44.700Z,84.67
2023-03-11T05:15:49.911Z,85.06
2023-03-11T05:20:53.644Z,84.82
2023-03-11T05:25:56.922Z,84.44
2023-03-11T05:31:01.707Z,83.73
2023-03-11T05:36:05.930Z,83.87
2023-03-11T05:41:09.188Z,83.51
2023-03-11T05:46:14.263Z,84.23
2023-03-11T05:51:17.526Z,84.14
2023-03-11T05:56:22.468Z,83.92
2023-03-11T06:01:27.320Z,83.39
2023-03-11T06:06:30.583Z,83.86
2023-03-11T06:11:33.976Z,83.14
2023-03-11T06:16:38.719Z,83.78
2023-03-11T06:21:41.725Z,83.41
2023-03-11T06:26:45.317Z,83.05
2023-03-11T06:31:50.000Z,83.28
2023-03-11T06:36:54.946Z,82.84
2023-03-11T06:41:57.920Z,82.80
2023-03-11T06:47:03.840Z,82.64
2023-03-11T06:52:07.783Z,82.84
2023-03-11T06:57:12.017Z,82.08
2023-03-11T07:02:18.141Z,82.46
2023-03-11T07:07:21.645Z,82.50
2023-03-11T07:12:25.663Z,82.39
2023-03-11T07:17:30.312Z,82.49
2023-03-11T07:22:33.561Z,81.90
2023-03-11T07:27:36.870Z,82.10
2023-03-11T07:32:42.742Z,81.78
2023-03-11T07:37:46.004Z,82.16
2023-03-11T07:42:49.264Z,81.59
2023-03-11T07:47:54.103Z,81.81
2023-03-11T07:52:57.078Z,82.08
2023-03-11T07:58:00.319Z,81.99
2023-03-11T08:03:04.996Z,81.37
2023-03-11T08:08:08.312Z,81.45
2023-03-11T08:13:11.536Z,81.11
2023-03-11T08:18:17.068Z,81.04
2023-03-11T08:23:20.420Z,81.53
2023-03-11T08:28:23.711Z,81.47
2023-03-11T08:33:28.700Z,81.90
2023-03-11T08:38:32.163Z,81.26
2023-03-11T08:43:36.081Z,81.50
2023-03-11T08:48:40.853Z,81.10
2023-03-11T08:53:44.184Z,81.43
2023-03-11T08:58:47.872Z,80.75
2023-03-11T09:03:52.771Z,81.11
2023-03-11T09:08:56.069Z,80.97
2023-03-11T09:13:59.334Z,81.45
2023-03-11T09:19:07.503Z,81.25
2023-03-11T09:24:10.849Z,81.74
2023-03-11T09:29:14.113Z,82.69
2023-03-11T09:34:18.819Z,83.06
2023-03-11T09:39:21.802Z,84.20
2023-03-11T09:44:32.845Z,83.57
2023-03-11T09:49:50.188Z,83.79
2023-03-11T09:54:57.100Z,83.84
2023-03-11T10:00:03.646Z,83.80
2023-03-11T10:05:15.309Z,83.08
2023-03-11T10:10:19.666Z,82.40
2023-03-11T10:15:31.340Z,81.95
2023-03-11T10:20:47.062Z,81.08
2023-03-11T10:26:00.177Z,80.76
2023-03-11T10:31:09.039Z,80.05
2023-03-11T10:36:17.453Z,78.91
2023-03-11T10:41:25.253Z,78.07
2023-03-11T10:46:30.524Z,77.31
2023-03-11T10:51:36.600Z,75.84
2023-03-11T10:56:41.825Z,75.44
2023-03-11T11:01:56.496Z,74.43
2023-03-11T11:07:20.788Z,73.72
2023-03-11T11:12:23.927Z,74.33
2023-03-11T11:17:31.476Z,73.87
2023-03-11T11:22:36.731Z,73.98
2023-03-11T11:27:39.905Z,73.29
2023-03-11T11:32:43.269Z,73.17
2023-03-11T11:37:49.917Z,72.35
2023-03-11T11:42:56.921Z,72.30
2023-03-11T11:48:04.498Z,72.44
2023-03-11T11:53:20.645Z,71.75
2023-03-11T11:58:24.135Z,70.93
2023-03-11T12:03:53.856Z,70.99
2023-03-11T12:09:08.625Z,71.11
2023-03-11T12:14:16.167Z,71.54
2023-03-11T12:19:26.991Z,71.99
2023-03-11T12:24:51.523Z,71.46
2023-03-11T12:29:57.726Z,71.62
2023-03-11T12:35:05.663Z,71.74
2023-03-11T12:40:57.546Z,71.38
2023-03-11T12:46:02.576Z,71.83
2023-03-11T12:51:06.461Z,72.27
2023-03-11T12:56:18.433Z,72.46
2023-03-11T13:01:41.970Z,72.80
2023-03-11T13:07:08.352Z,73.12
2023-03-11T13:12:44.076Z,73.52
2023-03-11T13:18:00.365Z,73.62
2023-03-11T13:23:22.530Z,73.40
2023-03-11T13:28:51.161Z,73.57
2023-03-11T13:33:57.748Z,73.47
2023-03-11T13:39:31.805Z,72.88
2023-03-11T13:44:38.048Z,73.09
2023-03-11T13:49:46.536Z,73.30
2023-03-11T13:54:55.332Z,73.21
2023-03-11T13:59:59.426Z,73.23
2023-03-11T14:05:08.179Z,74.04
2023-03-11T14:10:23.153Z,73.78
2023-03-11T14:15:28.081Z,74.27
2023-03-11T14:20:32.777Z,73.80
2023-03-11T14:25:36.827Z,73.72
2023-03-11T14:30:40.120Z,74.00
2023-03-11T15:12:50.012Z,68.75
2023-03-11T15:17:57.834Z,69.07
2023-03-11T15:23:03.141Z,69.65
2023-03-11T15:28:32.518Z,69.99
2023-03-11T15:33:35.675Z,69.92
2023-03-11T15:38:38.891Z,69.73
2023-03-11T15:43:48.458Z,69.75
2023-03-11T15:48:51.625Z,69.98
2023-03-11T15:53:54.773Z,70.57
2023-03-11T15:58:59.541Z,70.20
2023-03-11T16:04:02.912Z,70.72
2023-03-11T16:09:06.394Z,70.94
2023-03-11T16:14:17.023Z,71.20
2023-03-11T16:19:20.236Z,72.10
2023-03-11T16:24:26.564Z,72.90
2023-03-11T16:29:31.223Z,73.00
2023-03-11T16:34:34.286Z,73.41
2023-03-11T16:39:38.923Z,72.95
2023-03-11T16:44:43.334Z,74.13
2023-03-11T16:49:46.549Z,74.65
2023-03-11T16:54:50.401Z,74.73
2023-03-11T16:59:55.106Z,74.57
2023-03-11T17:04:58.173Z,74.68
2023-03-11T17:10:01.814Z,73.88
2023-03-11T17:15:08.640Z,73.82
2023-03-11T17:20:13.339Z,74.29
2023-03-11T17:30:37.180Z,74.53
2023-03-11T17:35:41.118Z,74.34
2023-03-11T17:40:44.326Z,74.73
2023-03-11T17:45:48.951Z,74.52
2023-03-11T17:50:51.979Z,75.37
2023-03-11T17:55:55.160Z,74.99
2023-03-11T18:01:00.541Z,75.81
2023-03-11T18:06:05.889Z,74.69
2023-03-11T18:11:11.316Z,75.82
2023-03-11T18:16:18.287Z,75.76
2023-03-11T18:21:23.870Z,75.64
2023-03-11T18:26:29.960Z,76.05
2023-03-11T18:31:34.732Z,76.35
2023-03-11T18:36:38.654Z,76.29
2023-03-11T18:41:42.978Z,76.36
2023-03-11T18:46:47.652Z,77.06
2023-03-11T18:51:50.596Z,77.45
2023-03-11T18:56:53.898Z,77.31
2023-03-11T19:01:58.537Z,77.24
2023-03-11T19:07:01.803Z,77.62
2023-03-11T19:12:05.334Z,77.82
2023-03-11T19:17:10.068Z,77.65
2023-03-11T19:22:13.325Z,77.75
2023-03-11T19:27:16.566Z,78.40
2023-03-11T19:32:21.240Z,78.76
2023-03-11T19:37:24.215Z,78.89
2023-03-11T19:42:27.430Z,79.32
2023-03-11T19:47:32.117Z,79.00
2023-03-11T19:52:36.314Z,80.06
2023-03-11T19:57:39.682Z,79.48
2023-03-11T20:02:44.925Z,79.19
2023-03-11T20:07:48.307Z,79.03
2023-03-11T20:13:01.796Z,79.23
2023-03-11T20:18:08.271Z,79.21
2023-03-11T20:23:11.599Z,79.09
2023-03-11T20:28:15.008Z,78.77
2023-03-11T20:33:19.751Z,79.06
2023-03-11T20:38:22.747Z,79.24
2023-03-11T20:43:26.111Z,78.86
2023-03-11T20:48:31.780Z,78.60
2023-03-11T20:53:35.721Z,78.65
2023-03-11T20:58:39.782Z,78.79
2023-03-11T21:03:45.159Z,79.12
2023-03-11T21:08:49.430Z,79.59
2023-03-11T21:13:53.174Z,80.04
2023-03-11T21:18:57.979Z,80.61
2023-03-11T21:24:01.126Z,80.48
2023-03-11T21:29:04.972Z,80.19
2023-03-11T21:34:11.995Z,80.53
2023-03-11T21:39:15.530Z,80.55
2023-03-11T21:44:19.180Z,80.58
2023-03-11T21:49:24.304Z,80.65
2023-03-11T21:54:27.763Z,80.89
2023-03-11T21:59:31.492Z,80.85
2023-03-11T22:04:36.253Z,80.92
2023-03-11T22:09:39.480Z,80.70
2023-03-11T22:14:42.827Z,80.44
2023-03-11T22:19:47.800Z,80.83
2023-03-11T22:24:51.061Z,80.41
2023-03-11T22:29:54.335Z,81.26
2023-03-11T22:34:59.031Z,80.64
2023-03-11T22:40:02.258Z,80.91
2023-03-11T22:45:06.457Z,80.42
2023-03-11T22:50:12.345Z,80.90
2023-03-11T22:55:15.616Z,80.97
2023-03-11T23:00:21.219Z,80.81
2023-03-11T23:05:25.963Z,80.36
2023-03-11T23:10:29.177Z,80.74
2023-03-11T23:15:32.511Z,80.87
2023-03-11T23:20:38.510Z,80.66
2023-03-11T23:25:42.696Z,80.59
2023-03-11T23:30:45.941Z,80.69
2023-03-11T23:35:50.599Z,81.31
2023-03-11T23:40:53.864Z,81.43
2023-03-11T23:45:57.098Z,80.87
2023-03-11T23:51:02.347Z,80.90
2023-03-11T23:56:11.150Z,80.60
